Time;durP1;ratioP1;P1;durP2;ratioP2;P2;SDS_P1;SDS_P2;PMS_P1;PMS_P2;Temp;Humidity;BMP_temperature;BMP_pressure;BME280_temperature;BME280_humidity;BME280_pressure;Samples;Min_cycle;Max_cycle;Signal;HPM_P1;HPM_P2
2022/08/23 00:01:39;;;;;;;;;;;;;;;25.51;82.25;98752.75;5076757;28;19920;-87
2022/08/23 00:04:09;;;;;;;;;;;;;;;25.69;82.01;98753.56;5057474;28;19916;-86
2022/08/23 00:06:35;;;;;;;;;;;;;;;25.65;81.88;98752.19;5065986;28;19920;-87
2022/08/23 00:09:00;;;;;;;;;;;;;;;25.50;81.33;98753.69;5059265;28;19916;-87
2022/08/23 00:11:27;;;;;;;;;;;;;;;25.28;82.06;98758.44;5059442;28;19919;-87
2022/08/23 00:13:52;;;;;;;;;;;;;;;25.11;81.52;98749.50;5075476;28;20032;-87
2022/08/23 00:16:20;;;;;;;;;;;;;;;25.37;80.38;98759.38;5074213;28;19916;-87
2022/08/23 00:18:45;;;;;;;;;;;;;;;25.59;80.65;98753.66;5079327;28;19968;-87
2022/08/23 00:21:12;;;;;;;;;;;;;;;25.06;81.99;98757.00;5074005;28;19920;-87
2022/08/23 00:23:37;;;;;;;;;;;;;;;25.19;80.58;98754.88;5058817;28;19920;-87
2022/08/23 00:26:02;;;;;;;;;;;;;;;25.76;79.10;98761.69;5073773;28;19919;-87
2022/08/23 00:28:28;;;;;;;;;;;;;;;25.27;80.99;98756.78;5061574;28;19920;-87
2022/08/23 00:30:53;;;;;;;;;;;;;;;25.41;79.97;98756.28;5074450;28;20006;-87
2022/08/23 00:33:19;;;;;;;;;;;;;;;25.18;80.92;98758.50;5094537;28;20380;-87
2022/08/23 00:35:45;;;;;;;;;;;;;;;25.38;80.20;98763.66;5068801;27;19916;-87
2022/08/23 00:38:10;;;;;;;;;;;;;;;25.78;78.92;98750.00;5082149;27;19919;-87
2022/08/23 00:40:35;;;;;;;;;;;;;;;25.78;78.73;98757.94;5078223;27;20006;-87
2022/08/23 00:48:37;;;;;;;;;;;;;;;26.41;70.64;98749.00;5112112;27;20509;-87
2022/08/23 00:51:03;;;;;;;;;;;;;;;26.27;69.52;98746.91;5093906;27;19923;-87
2022/08/23 00:53:35;;;;;;;;;;;;;;;26.31;68.99;98745.63;5110040;27;20851;-87
2022/08/23 00:56:04;;;;;;;;;;;;;;;25.70;69.77;98743.84;5074263;27;19923;-87
2022/08/23 00:58:30;;;;;;;;;;;;;;;25.85;70.73;98743.13;5083124;27;19923;-88
2022/08/23 01:00:56;;;;;;;;;;;;;;;25.66;70.02;98743.31;5086563;27;19968;-87
2022/08/23 01:03:22;;;;;;;;;;;;;;;25.73;69.49;98744.38;5098529;27;19972;-87
2022/08/23 01:05:52;;;;;;;;;;;;;;;25.99;67.98;98738.34;5079973;27;19978;-86
2022/08/23 01:08:18;;;;;;;;;;;;;;;25.42;68.76;98739.47;5095604;27;20892;-87
2022/08/23 01:10:48;;;;;;;;;;;;;;;25.84;69.67;98752.06;5096953;27;19988;-87
2022/08/23 01:13:15;;;;;;;;;;;;;;;26.47;65.79;98739.63;5080320;27;20433;-87
2022/08/23 01:15:45;;;;;;;;;;;;;;;26.29;65.88;98744.94;5077641;28;19923;-87
2022/08/23 01:18:12;;;;;;;;;;;;;;;26.21;66.47;98751.03;5078060;27;20559;-87
2022/08/23 01:20:39;;;;;;;;;;;;;;;26.58;63.59;98734.09;5080402;27;19976;-87
2022/08/23 01:23:07;;;;;;;;;;;;;;;25.87;66.80;98735.94;5098512;27;19915;-86
2022/08/23 01:25:32;;;;;;;;;;;;;;;25.51;69.54;98745.66;5111080;27;20004;-87
2022/08/23 01:28:00;;;;;;;;;;;;;;;25.77;67.14;98740.47;5083367;27;19951;-87
2022/08/23 01:30:28;;;;;;;;;;;;;;;25.77;67.32;98748.38;5083211;27;19921;-87
2022/08/23 01:32:57;;;;;;;;;;;;;;;25.40;68.32;98744.06;5084928;28;20640;-87
2022/08/23 01:35:42;;;;;;;;;;;;;;;25.44;67.98;98748.06;5110249;27;19919;-87
2022/08/23 01:38:08;;;;;;;;;;;;;;;25.62;68.61;98739.34;5089135;27;19916;-87
2022/08/23 01:40:34;;;;;;;;;;;;;;;25.69;66.61;98743.00;5083463;28;19930;-87
2022/08/23 01:43:00;;;;;;;;;;;;;;;26.01;66.64;98736.38;5099533;28;19919;-87
2022/08/23 01:45:26;;;;;;;;;;;;;;;26.42;64.24;98739.25;5099188;28;20005;-87
2022/08/23 01:47:52;;;;;;;;;;;;;;;25.46;66.64;98734.72;5088644;28;19915;-87
2022/08/23 01:50:17;;;;;;;;;;;;;;;25.56;68.27;98735.47;5076704;28;19919;-87
2022/08/23 01:52:43;;;;;;;;;;;;;;;25.70;68.24;98739.38;5095136;28;19926;-87
2022/08/23 01:55:08;;;;;;;;;;;;;;;26.07;66.22;98735.75;5093168;28;20046;-87
2022/08/23 01:57:34;;;;;;;;;;;;;;;25.74;67.99;98740.75;5109435;28;20588;-87
2022/08/23 01:59:59;;;;;;;;;;;;;;;26.18;64.96;98732.84;5091640;28;19916;-88
2022/08/23 02:02:24;;;;;;;;;;;;;;;25.48;68.66;98743.31;5104526;28;19930;-87
2022/08/23 02:04:52;;;;;;;;;;;;;;;25.97;65.62;98729.72;5087570;28;20864;-88
2022/08/23 02:07:18;;;;;;;;;;;;;;;25.44;69.19;98741.97;5102697;28;19934;-87
2022/08/23 02:09:43;;;;;;;;;;;;;;;25.55;67.87;98735.66;5105365;27;19915;-87
2022/08/23 02:12:08;;;;;;;;;;;;;;;25.35;68.99;98734.97;5107518;27;19920;-87
2022/08/23 02:14:36;;;;;;;;;;;;;;;25.59;68.63;98747.53;5073265;27;21765;-87
2022/08/23 02:17:01;;;;;;;;;;;;;;;25.87;67.36;98741.22;5092769;27;19920;-87
2022/08/23 02:19:27;;;;;;;;;;;;;;;25.88;67.88;98742.84;5078533;27;20342;-87
2022/08/23 02:21:52;;;;;;;;;;;;;;;26.36;63.86;98729.31;5095342;27;19922;-87
2022/08/23 02:24:19;;;;;;;;;;;;;;;25.71;65.68;98734.97;5096019;27;20436;-88
2022/08/23 02:26:46;;;;;;;;;;;;;;;25.22;68.55;98740.59;5090442;27;19980;-87
2022/08/23 02:29:13;;;;;;;;;;;;;;;25.69;65.84;98737.75;5074577;27;20302;-87
2022/08/23 02:31:42;;;;;;;;;;;;;;;25.60;66.95;98736.84;5050953;27;19915;-87
2022/08/23 02:34:11;;;;;;;;;;;;;;;25.34;69.45;98744.69;5080164;27;19927;-87
2022/08/23 02:36:38;;;;;;;;;;;;;;;25.64;66.60;98740.00;5072115;28;20198;-88
2022/08/23 02:39:05;;;;;;;;;;;;;;;25.29;68.56;98740.81;5054307;28;20408;-87
2022/08/23 02:41:30;;;;;;;;;;;;;;;26.08;64.88;98742.69;5070459;28;19926;-87
2022/08/23 02:43:56;;;;;;;;;;;;;;;25.81;65.53;98736.50;5086047;28;19916;-88
2022/08/23 02:46:22;;;;;;;;;;;;;;;25.78;66.57;98746.56;5052747;28;19965;-87
2022/08/23 02:48:47;;;;;;;;;;;;;;;25.39;67.61;98737.13;5054208;28;19920;-87
2022/08/23 02:51:15;;;;;;;;;;;;;;;25.68;66.53;98738.69;5050533;28;19927;-87
2022/08/23 02:53:40;;;;;;;;;;;;;;;25.69;66.96;98736.91;5055656;28;19916;-87
2022/08/23 02:56:06;;;;;;;;;;;;;;;25.79;66.94;98748.19;5055443;28;19919;-87
2022/08/23 02:58:33;;;;;;;;;;;;;;;25.45;66.68;98741.81;5068514;28;20477;-87
2022/08/23 03:01:00;;;;;;;;;;;;;;;25.29;68.67;98741.63;5056649;28;19919;-88
2022/08/23 03:03:25;;;;;;;;;;;;;;;25.90;66.95;98740.06;5066010;28;20005;-88
2022/08/23 03:05:54;;;;;;;;;;;;;;;25.96;65.78;98744.75;5051739;28;19994;-88
2022/08/23 03:08:19;;;;;;;;;;;;;;;25.59;67.15;98748.38;5065020;28;19931;-87
2022/08/23 03:10:45;;;;;;;;;;;;;;;25.19;68.95;98746.16;5054289;28;19916;-88
2022/08/23 03:13:13;;;;;;;;;;;;;;;25.21;68.17;98744.22;5073803;28;19958;-88
2022/08/23 03:15:41;;;;;;;;;;;;;;;25.21;67.21;98738.94;5072717;28;20403;-88
2022/08/23 03:18:07;;;;;;;;;;;;;;;25.60;67.03;98741.28;5064080;28;19927;-88
2022/08/23 03:20:33;;;;;;;;;;;;;;;25.25;68.81;98742.94;5072349;28;20304;-88
2022/08/23 03:23:00;;;;;;;;;;;;;;;25.48;68.03;98737.19;5055713;28;19964;-87
2022/08/23 03:25:26;;;;;;;;;;;;;;;25.48;67.86;98742.47;5067905;28;20060;-88
2022/08/23 03:27:51;;;;;;;;;;;;;;;25.83;66.86;98747.75;5064116;28;19923;-89
2022/08/23 03:30:16;;;;;;;;;;;;;;;25.73;67.76;98733.81;5071616;28;19975;-88
2022/08/23 03:32:42;;;;;;;;;;;;;;;25.49;67.80;98736.25;5075075;28;19964;-88
2022/08/23 03:35:07;;;;;;;;;;;;;;;25.16;69.39;98746.44;5078363;27;20379;-88
2022/08/23 03:37:33;;;;;;;;;;;;;;;25.65;67.15;98741.66;5093693;27;19915;-88
2022/08/23 03:39:58;;;;;;;;;;;;;;;25.64;67.36;98745.28;5074796;27;19930;-87
2022/08/23 03:42:24;;;;;;;;;;;;;;;25.53;67.00;98748.97;5075740;27;19923;-87
2022/08/23 03:44:49;;;;;;;;;;;;;;;26.11;64.87;98747.63;5076881;27;19926;-87
2022/08/23 03:47:14;;;;;;;;;;;;;;;26.45;62.45;98749.50;5109190;27;19941;-87
2022/08/23 03:49:40;;;;;;;;;;;;;;;26.29;62.08;98756.34;5092192;27;19924;-86
2022/08/23 03:52:05;;;;;;;;;;;;;;;26.76;61.22;98754.31;5095268;27;20288;-87
2022/08/23 03:54:31;;;;;;;;;;;;;;;25.80;63.74;98766.53;5077235;28;19915;-87
2022/08/23 03:57:01;;;;;;;;;;;;;;;25.76;65.70;98769.63;5077682;27;20175;-87
2022/08/23 03:59:27;;;;;;;;;;;;;;;27.44;56.98;98761.34;5092879;27;19915;-86
2022/08/23 04:01:52;;;;;;;;;;;;;;;27.41;58.43;98773.03;5096076;27;19920;-86
2022/08/23 04:04:18;;;;;;;;;;;;;;;27.29;58.96;98766.41;5074105;27;20390;-86
2022/08/23 04:06:44;;;;;;;;;;;;;;;26.96;58.51;98776.03;5074763;27;19919;-87
2022/08/23 04:09:09;;;;;;;;;;;;;;;26.89;58.80;98781.09;5106789;27;20405;-87
2022/08/23 04:11:35;;;;;;;;;;;;;;;27.11;57.89;98783.19;5070789;27;19920;-87
2022/08/23 04:14:00;;;;;;;;;;;;;;;26.63;60.14;98795.19;5092255;27;20185;-87
2022/08/23 04:16:25;;;;;;;;;;;;;;;26.21;63.47;98795.91;5106592;27;19922;-86
2022/08/23 04:18:51;;;;;;;;;;;;;;;27.03;61.55;98788.47;5086922;27;20426;-86
2022/08/23 04:21:17;;;;;;;;;;;;;;;27.05;60.81;98793.56;5092936;27;20530;-87
2022/08/23 04:23:43;;;;;;;;;;;;;;;26.96;60.42;98790.09;5112958;27;19915;-87
2022/08/23 04:26:09;;;;;;;;;;;;;;;26.95;61.35;98800.81;5097041;27;19930;-87
2022/08/23 04:28:34;;;;;;;;;;;;;;;26.07;63.45;98801.75;5078043;27;20011;-88
2022/08/23 04:31:00;;;;;;;;;;;;;;;25.61;68.19;98809.72;5076851;27;19965;-86
2022/08/23 04:33:26;;;;;;;;;;;;;;;26.14;67.57;98808.06;5078087;27;19915;-88
2022/08/23 04:35:52;;;;;;;;;;;;;;;26.17;65.42;98810.38;5099545;27;19931;-86
2022/08/23 04:38:19;;;;;;;;;;;;;;;26.33;65.03;98808.84;5074742;27;19935;-86
2022/08/23 04:43:29;;;;;;;;;;;;;;;25.49;71.14;98815.34;5111759;27;19918;-86
2022/08/23 04:45:55;;;;;;;;;;;;;;;25.60;72.23;98815.13;5074743;27;19919;-87
2022/08/23 04:48:21;;;;;;;;;;;;;;;25.84;70.85;98817.16;5092898;27;19968;-87
2022/08/23 04:50:48;;;;;;;;;;;;;;;25.97;70.81;98816.81;5092416;27;19919;-87
2022/08/23 04:53:14;;;;;;;;;;;;;;;26.12;69.43;98817.94;5094547;27;19922;-87
2022/08/23 04:55:39;;;;;;;;;;;;;;;26.10;66.46;98819.91;5096987;27;19915;-86
2022/08/23 04:58:05;;;;;;;;;;;;;;;25.72;68.50;98821.81;5080549;27;20517;-86
2022/08/23 05:00:30;;;;;;;;;;;;;;;25.95;66.00;98821.41;5080791;27;19971;-86
2022/08/23 05:02:56;;;;;;;;;;;;;;;26.39;66.64;98826.69;5113693;27;19916;-86
2022/08/23 05:05:21;;;;;;;;;;;;;;;26.38;66.62;98827.69;5079649;27;20300;-86
2022/08/23 05:07:46;;;;;;;;;;;;;;;25.83;67.39;98837.44;5077293;27;19922;-86
2022/08/23 05:10:12;;;;;;;;;;;;;;;26.22;65.56;98828.41;5080212;27;19915;-89
2022/08/23 05:12:38;;;;;;;;;;;;;;;25.99;66.71;98828.88;5081659;27;19926;-88
2022/08/23 05:15:04;;;;;;;;;;;;;;;25.25;70.27;98838.66;5113324;27;19915;-87
2022/08/23 05:17:29;;;;;;;;;;;;;;;25.65;69.94;98832.16;5096652;27;19915;-87
2022/08/23 05:19:54;;;;;;;;;;;;;;;24.92;72.76;98837.38;5078653;27;20030;-87
2022/08/23 05:22:19;;;;;;;;;;;;;;;25.58;69.52;98832.91;5077181;27;20323;-86
2022/08/23 05:24:45;;;;;;;;;;;;;;;24.97;73.09;98845.66;5094880;28;19916;-87
2022/08/23 05:27:10;;;;;;;;;;;;;;;25.22;72.60;98836.28;5095848;27;19915;-89
2022/08/23 05:29:35;;;;;;;;;;;;;;;25.34;71.90;98834.31;5079145;27;19962;-90
2022/08/23 05:32:01;;;;;;;;;;;;;;;25.19;72.43;98841.03;5081901;27;20382;-89
2022/08/23 05:34:26;;;;;;;;;;;;;;;25.11;73.03;98843.53;5080523;27;19919;-88
2022/08/23 05:36:52;;;;;;;;;;;;;;;24.92;74.32;98842.63;5079010;27;20652;-88
2022/08/23 05:39:17;;;;;;;;;;;;;;;25.24;73.92;98846.69;5081152;27;19920;-89
2022/08/23 05:41:42;;;;;;;;;;;;;;;24.97;73.50;98843.03;5079379;27;19915;-88
2022/08/23 05:44:09;;;;;;;;;;;;;;;25.07;74.87;98852.72;5083039;27;20040;-89
2022/08/23 05:46:34;;;;;;;;;;;;;;;25.04;74.71;98844.13;5086340;28;19911;-88
2022/08/23 05:48:59;;;;;;;;;;;;;;;25.28;71.93;98850.69;5092582;28;19916;-88
2022/08/23 05:51:28;;;;;;;;;;;;;;;25.20;73.72;98855.84;5079626;28;19923;-87
2022/08/23 05:53:54;;;;;;;;;;;;;;;24.74;76.44;98862.78;5078094;28;20405;-87
2022/08/23 05:56:27;;;;;;;;;;;;;;;25.07;74.84;98863.25;5095148;28;19951;-86
2022/08/23 05:58:53;;;;;;;;;;;;;;;24.94;75.97;98864.41;5079502;27;19919;-87
2022/08/23 06:01:19;;;;;;;;;;;;;;;25.19;75.20;98873.47;5094504;28;19926;-87
2022/08/23 06:03:44;;;;;;;;;;;;;;;25.16;75.07;98875.56;5080420;28;19920;-87
2022/08/23 06:06:11;;;;;;;;;;;;;;;25.72;72.62;98873.75;5075425;28;19919;-87
2022/08/23 06:08:40;;;;;;;;;;;;;;;24.80;75.99;98878.03;5084882;28;19939;-88
2022/08/23 06:11:10;;;;;;;;;;;;;;;25.19;75.71;98880.56;5078671;28;19934;-87
2022/08/23 06:13:42;;;;;;;;;;;;;;;25.87;72.73;98878.41;5075968;28;19930;-87
2022/08/23 06:16:08;;;;;;;;;;;;;;;26.25;70.70;98879.09;5079751;28;19920;-87
2022/08/23 06:18:33;;;;;;;;;;;;;;;26.50;68.03;98885.41;5075746;28;19927;-87
2022/08/23 06:21:03;;;;;;;;;;;;;;;25.91;69.85;98880.72;5094490;28;20060;-88
2022/08/23 06:23:28;;;;;;;;;;;;;;;26.44;69.30;98883.34;5084775;28;19982;-86
2022/08/23 06:25:53;;;;;;;;;;;;;;;26.43;67.46;98883.50;5089595;28;20619;-86
2022/08/23 06:28:19;;;;;;;;;;;;;;;27.33;64.50;98881.47;5092114;28;20882;-86
2022/08/23 06:30:44;;;;;;;;;;;;;;;26.90;66.74;98883.19;5092137;28;19916;-85
2022/08/23 06:33:11;;;;;;;;;;;;;;;27.30;66.76;98885.25;5077003;28;19919;-86
2022/08/23 06:35:36;;;;;;;;;;;;;;;27.06;67.18;98885.09;5114364;27;19919;-88
2022/08/23 06:38:02;;;;;;;;;;;;;;;26.70;66.95;98886.03;5092614;28;19918;-89
2022/08/23 06:40:27;;;;;;;;;;;;;;;26.21;69.94;98893.56;5074522;28;19951;-87
2022/08/23 06:42:53;;;;;;;;;;;;;;;26.02;73.35;98897.19;5073333;28;19916;-88
2022/08/23 06:45:18;;;;;;;;;;;;;;;26.48;70.78;98892.63;5092891;28;19919;-89
2022/08/23 06:47:43;;;;;;;;;;;;;;;26.27;70.14;98892.13;5074468;28;19921;-88
2022/08/23 06:50:09;;;;;;;;;;;;;;;26.84;69.98;98897.03;5096543;28;19915;-88
2022/08/23 06:52:35;;;;;;;;;;;;;;;26.74;69.95;98894.50;5079267;28;19924;-88
2022/08/23 06:55:02;;;;;;;;;;;;;;;27.16;66.34;98895.56;5093375;28;19926;-87
2022/08/23 06:57:27;;;;;;;;;;;;;;;27.82;66.96;98889.53;5096315;27;19915;-86
2022/08/23 06:59:52;;;;;;;;;;;;;;;27.16;66.89;98898.19;5080137;27;19918;-87
2022/08/23 07:02:18;;;;;;;;;;;;;;;27.59;67.40;98886.66;5116181;27;19928;-88
2022/08/23 07:04:43;;;;;;;;;;;;;;;27.72;65.17;98892.31;5081927;27;19915;-88
2022/08/23 07:07:09;;;;;;;;;;;;;;;28.42;62.71;98887.63;5100698;27;19923;-89
2022/08/23 07:09:35;;;;;;;;;;;;;;;27.44;65.93;98904.97;5101089;27;19923;-89
2022/08/23 07:12:00;;;;;;;;;;;;;;;27.54;63.63;98900.38;5104119;27;19922;-89
2022/08/23 07:14:26;;;;;;;;;;;;;;;27.80;64.14;98899.44;5095863;27;19958;-90
2022/08/23 07:16:52;;;;;;;;;;;;;;;28.14;62.44;98903.84;5100940;27;19958;-89
2022/08/23 07:19:19;;;;;;;;;;;;;;;28.19;61.43;98898.91;5097028;27;19920;-89
2022/08/23 07:21:44;;;;;;;;;;;;;;;28.32;60.23;98901.84;5102154;27;20617;-86
2022/08/23 07:24:12;;;;;;;;;;;;;;;27.99;61.55;98905.50;5085081;27;19915;-87
2022/08/23 07:26:38;;;;;;;;;;;;;;;27.70;64.35;98904.06;5100662;27;19930;-88
2022/08/23 07:29:07;;;;;;;;;;;;;;;28.63;61.55;98900.41;5100035;27;20368;-88
2022/08/23 07:31:33;;;;;;;;;;;;;;;27.93;63.08;98915.72;5101968;27;20375;-88
2022/08/23 07:33:58;;;;;;;;;;;;;;;29.02;58.41;98913.75;5085468;27;20869;-89
2022/08/23 07:36:25;;;;;;;;;;;;;;;28.65;61.61;98911.66;5115167;27;19920;-89
2022/08/23 07:38:51;;;;;;;;;;;;;;;28.99;57.88;98914.09;5075364;27;19916;-89
2022/08/23 07:41:19;;;;;;;;;;;;;;;29.42;56.99;98913.81;5078563;27;19919;-89
2022/08/23 07:43:45;;;;;;;;;;;;;;;28.86;58.51;98919.09;5094109;27;19915;-89
2022/08/23 07:46:10;;;;;;;;;;;;;;;28.32;60.08;98920.41;5079493;27;20953;-88
2022/08/23 07:48:36;;;;;;;;;;;;;;;28.08;61.51;98929.16;5107964;27;19916;-88
2022/08/23 07:51:02;;;;;;;;;;;;;;;29.06;56.85;98923.03;5076872;27;19915;-88
2022/08/23 07:53:31;;;;;;;;;;;;;;;28.67;59.15;98923.75;5076629;27;19963;-88
2022/08/23 07:55:56;;;;;;;;;;;;;;;30.50;53.72;98921.81;5091913;27;19915;-88
2022/08/23 07:58:22;;;;;;;;;;;;;;;29.39;55.78;98930.91;5091249;27;19923;-88
2022/08/23 08:00:47;;;;;;;;;;;;;;;29.22;54.99;98930.13;5078721;27;19927;-87
2022/08/23 08:03:13;;;;;;;;;;;;;;;30.42;53.16;98930.69;5095521;27;20357;-89
2022/08/23 08:05:38;;;;;;;;;;;;;;;30.24;54.34;98932.78;5080807;27;19922;-87
2022/08/23 08:08:04;;;;;;;;;;;;;;;29.66;53.74;98934.94;5072894;27;20296;-88
2022/08/23 08:10:29;;;;;;;;;;;;;;;29.85;53.35;98931.03;5092993;27;20023;-88
2022/08/23 08:12:54;;;;;;;;;;;;;;;30.41;51.13;98928.22;5080460;27;19916;-88
2022/08/23 08:15:21;;;;;;;;;;;;;;;30.93;50.45;98927.44;5106635;27;19916;-89
2022/08/23 08:17:47;;;;;;;;;;;;;;;31.06;47.88;98932.09;5109631;27;19915;-86
2022/08/23 08:20:12;;;;;;;;;;;;;;;30.45;50.71;98929.50;5093706;27;19915;-87
2022/08/23 08:22:50;;;;;;;;;;;;;;;;;;;;;
2022/08/23 08:25:16;;;;;;;;;;;;;;;31.08;47.38;98943.41;5094190;27;19915;-86
2022/08/23 08:27:41;;;;;;;;;;;;;;;31.66;46.75;98933.75;5075951;27;19935;-86
2022/08/23 08:30:07;;;;;;;;;;;;;;;31.42;45.67;98934.06;5111475;27;20018;-87
2022/08/23 08:32:33;;;;;;;;;;;;;;;31.20;48.42;98944.59;5075764;27;19919;-86
2022/08/23 08:34:58;;;;;;;;;;;;;;;32.13;45.66;98939.63;5077313;27;19972;-88
2022/08/23 08:37:24;;;;;;;;;;;;;;;33.36;44.64;98939.38;5093046;27;19916;-88
2022/08/23 08:39:49;;;;;;;;;;;;;;;33.22;43.53;98938.47;5079050;27;19922;-87
2022/08/23 08:42:25;;;;;;;;;;;;;;;33.38;42.49;98943.50;5093329;27;20437;-86
2022/08/23 08:44:52;;;;;;;;;;;;;;;31.99;43.84;98948.50;5075260;27;19919;-86
2022/08/23 08:47:21;;;;;;;;;;;;;;;31.76;46.25;98948.63;5092183;27;19919;-86
2022/08/23 08:49:48;;;;;;;;;;;;;;;32.24;44.71;98947.09;5107121;27;19923;-86
2022/08/23 08:52:15;;;;;;;;;;;;;;;33.13;42.93;98941.31;5073385;27;19915;-86
2022/08/23 08:54:42;;;;;;;;;;;;;;;33.85;40.19;98943.69;5074188;27;19927;-88
2022/08/23 08:57:07;;;;;;;;;;;;;;;34.37;40.70;98950.19;5092158;27;20021;-87
2022/08/23 08:59:53;;;;;;;;;;;;;;;34.57;39.97;98951.03;5092526;27;20822;-88
2022/08/23 09:02:19;;;;;;;;;;;;;;;35.25;38.65;98941.94;5081862;28;20061;-86
2022/08/23 09:04:44;;;;;;;;;;;;;;;34.77;38.33;98942.22;5074902;28;20003;-87
2022/08/23 09:07:27;;;;;;;;;;;;;;;34.27;38.63;98945.25;5075041;27;19965;-87
2022/08/23 09:09:53;;;;;;;;;;;;;;;34.90;37.87;98936.88;5093211;28;19916;-87
2022/08/23 09:12:18;;;;;;;;;;;;;;;35.04;37.49;98942.19;5108803;27;19983;-87
2022/08/23 09:14:51;;;;;;;;;;;;;;;35.17;36.36;98934.13;5090790;28;19915;-87
2022/08/23 09:17:21;;;;;;;;;;;;;;;35.79;36.30;98940.75;5090201;28;19915;-87
2022/08/23 09:19:48;;;;;;;;;;;;;;;34.91;36.65;98943.84;5075204;27;19990;-87
2022/08/23 09:22:16;;;;;;;;;;;;;;;35.35;35.39;98937.00;5075467;27;19927;-87
2022/08/23 09:24:41;;;;;;;;;;;;;;;35.13;35.24;98947.13;5089708;27;19916;-87
2022/08/23 09:27:07;;;;;;;;;;;;;;;36.06;34.33;98945.97;5091004;27;19922;-86
2022/08/23 09:29:34;;;;;;;;;;;;;;;36.53;34.01;98943.78;5106436;27;20045;-87
2022/08/23 09:32:04;;;;;;;;;;;;;;;35.08;32.82;98940.72;5088872;27;19924;-86
2022/08/23 09:34:36;;;;;;;;;;;;;;;36.36;34.88;98942.69;5090274;27;19916;-86
2022/08/23 09:37:06;;;;;;;;;;;;;;;36.63;32.43;98944.16;5091434;28;19916;-85
2022/08/23 09:39:31;;;;;;;;;;;;;;;37.57;34.63;98952.09;5082251;28;19927;-86
2022/08/23 09:41:59;;;;;;;;;;;;;;;37.39;32.48;98936.78;5073506;28;20121;-85
2022/08/23 09:44:30;;;;;;;;;;;;;;;35.43;32.74;98940.47;5102730;27;19923;-87
2022/08/23 09:47:14;;;;;;;;;;;;;;;35.93;33.88;98940.69;5107447;27;20005;-88
2022/08/23 09:49:40;;;;;;;;;;;;;;;37.01;33.55;98940.47;5090684;28;19934;-88
2022/08/23 09:52:26;;;;;;;;;;;;;;;37.67;32.64;98940.81;5075066;28;19920;-89
2022/08/23 09:54:56;;;;;;;;;;;;;;;36.51;32.57;98935.13;5094769;28;19926;-88
2022/08/23 09:57:25;;;;;;;;;;;;;;;37.17;31.80;98930.22;5092117;28;20367;-88
2022/08/23 09:59:50;;;;;;;;;;;;;;;37.00;31.01;98928.09;5084038;28;19915;-88
2022/08/23 10:02:31;;;;;;;;;;;;;;;37.56;31.91;98938.88;5096429;28;19931;-88
2022/08/23 10:04:57;;;;;;;;;;;;;;;36.57;32.12;98936.94;5092017;28;19912;-88
2022/08/23 10:07:33;;;;;;;;;;;;;;;38.18;32.96;98936.81;5107042;28;19963;-88
2022/08/23 10:10:17;;;;;;;;;;;;;;;37.96;30.99;98928.41;5093306;28;19916;-86
2022/08/23 10:12:42;;;;;;;;;;;;;;;36.74;31.55;98933.72;5106162;28;19915;-86
2022/08/23 10:15:08;;;;;;;;;;;;;;;36.64;32.55;98932.34;5088475;28;19915;-88
2022/08/23 10:17:52;;;;;;;;;;;;;;;38.19;32.44;98929.56;5075702;28;19919;-88
2022/08/23 10:20:34;;;;;;;;;;;;;;;39.57;29.55;98923.81;5103079;28;19981;-88
2022/08/23 10:23:06;;;;;;;;;;;;;;;37.54;31.90;98924.81;5092119;28;19920;-89
2022/08/23 10:25:35;;;;;;;;;;;;;;;36.05;34.17;98930.91;5110615;28;19919;-89
2022/08/23 10:30:48;;;;;;;;;;;;;;;38.20;29.60;98918.56;5094989;27;20424;-86
2022/08/23 10:33:15;;;;;;;;;;;;;;;38.12;31.31;98913.53;5094737;27;19919;-87
2022/08/23 10:36:02;;;;;;;;;;;;;;;38.56;29.39;98922.16;5076417;27;19927;-88
2022/08/23 10:38:34;;;;;;;;;;;;;;;38.15;30.92;98921.13;5112968;27;19916;-88
2022/08/23 10:41:08;;;;;;;;;;;;;;;37.42;31.78;98920.19;5094209;27;20014;-88
2022/08/23 10:43:38;;;;;;;;;;;;;;;38.76;31.71;98913.72;5089724;27;20785;-85
2022/08/23 10:46:06;;;;;;;;;;;;;;;37.16;30.00;98909.78;5096871;27;19926;-86
2022/08/23 10:48:33;;;;;;;;;;;;;;;39.00;30.39;98914.53;5077638;27;20050;-86
2022/08/23 10:50:58;;;;;;;;;;;;;;;37.77;31.65;98913.38;5078231;27;20465;-91
2022/08/23 10:53:28;;;;;;;;;;;;;;;38.84;31.83;98913.34;5095833;27;19924;-86
2022/08/23 10:56:03;;;;;;;;;;;;;;;38.98;29.52;98911.28;5094422;27;19947;-88
2022/08/23 10:58:32;;;;;;;;;;;;;;;39.08;28.42;98911.50;5096184;27;19962;-87
2022/08/23 11:01:00;;;;;;;;;;;;;;;38.21;30.20;98898.69;5113900;27;20014;-88
2022/08/23 11:03:31;;;;;;;;;;;;;;;38.16;29.61;98906.63;5078033;27;19959;-88
2022/08/23 11:06:15;;;;;;;;;;;;;;;36.99;30.23;98894.22;5093520;27;19922;-89
2022/08/23 11:08:45;;;;;;;;;;;;;;;37.79;29.09;98895.97;5097632;27;20384;-89
2022/08/23 11:11:30;;;;;;;;;;;;;;;37.79;28.99;98897.84;5094860;27;19966;-88
2022/08/23 11:13:55;;;;;;;;;;;;;;;38.88;29.68;98898.38;5099956;27;19922;-86
2022/08/23 11:16:24;;;;;;;;;;;;;;;39.03;31.01;98903.31;5078851;27;19915;-87
2022/08/23 11:18:49;;;;;;;;;;;;;;;38.18;29.90;98899.16;5096916;27;19972;-88
2022/08/23 11:21:18;;;;;;;;;;;;;;;38.73;30.53;98898.06;5095804;27;19919;-86
2022/08/23 11:23:48;;;;;;;;;;;;;;;39.82;29.00;98900.03;5098279;27;20030;-88
2022/08/23 11:26:35;;;;;;;;;;;;;;;40.06;27.74;98897.22;5078137;27;19963;-85
2022/08/23 11:29:07;;;;;;;;;;;;;;;38.89;28.24;98899.22;5097816;27;19922;-88
2022/08/23 11:31:38;;;;;;;;;;;;;;;38.46;30.73;98905.75;5110673;27;19920;-88
2022/08/23 11:34:05;;;;;;;;;;;;;;;39.29;28.16;98903.84;5095458;27;20042;-88
2022/08/23 11:36:30;;;;;;;;;;;;;;;38.88;27.94;98893.00;5090195;27;19920;-88
2022/08/23 11:39:00;;;;;;;;;;;;;;;39.32;29.77;98896.09;5077308;27;20356;-89
2022/08/23 11:41:30;;;;;;;;;;;;;;;40.87;27.78;98883.38;5085407;27;19924;-86
2022/08/23 11:43:55;;;;;;;;;;;;;;;40.16;27.95;98892.00;5109714;27;19985;-86
2022/08/23 11:46:26;;;;;;;;;;;;;;;40.72;27.52;98890.19;5092620;28;19920;-86
2022/08/23 11:48:55;;;;;;;;;;;;;;;39.65;30.21;98886.50;5105119;27;19954;-86
2022/08/23 11:51:26;;;;;;;;;;;;;;;37.86;29.63;98880.59;5095858;27;19934;-87
2022/08/23 11:53:52;;;;;;;;;;;;;;;39.53;29.39;98883.06;5091836;27;19919;-87
2022/08/23 11:56:17;;;;;;;;;;;;;;;38.74;28.93;98878.16;5109169;27;19935;-87
2022/08/23 11:58:42;;;;;;;;;;;;;;;38.97;29.59;98874.63;5094779;27;19908;-87
2022/08/23 12:01:08;;;;;;;;;;;;;;;38.16;29.35;98877.06;5108239;27;20058;-87
2022/08/23 12:03:49;;;;;;;;;;;;;;;39.15;30.41;98886.31;5073801;27;19922;-87
2022/08/23 12:06:18;;;;;;;;;;;;;;;38.79;29.88;98882.81;5107493;27;19969;-87
2022/08/23 12:08:45;;;;;;;;;;;;;;;38.75;28.54;98871.69;5108549;27;19943;-87
2022/08/23 12:11:11;;;;;;;;;;;;;;;37.26;32.78;98889.41;5073497;27;19940;-88
2022/08/23 12:13:45;;;;;;;;;;;;;;;37.86;32.44;98891.34;5074772;27;19915;-89
2022/08/23 12:16:10;;;;;;;;;;;;;;;38.06;30.13;98882.16;5076128;27;19919;-87
2022/08/23 12:18:48;;;;;;;;;;;;;;;38.36;29.48;98875.91;5111751;27;19926;-89
2022/08/23 12:21:18;;;;;;;;;;;;;;;38.46;29.88;98873.47;5092966;27;19939;-89
2022/08/23 12:23:44;;;;;;;;;;;;;;;39.39;27.76;98868.22;5094460;27;20498;-90
2022/08/23 12:26:33;;;;;;;;;;;;;;;39.23;29.90;98877.84;5076806;27;19916;-89
2022/08/23 12:29:03;;;;;;;;;;;;;;;38.28;30.67;98872.50;5097357;27;19927;-87
2022/08/23 12:31:32;;;;;;;;;;;;;;;36.08;34.24;98867.97;5092501;27;20028;-88
2022/08/23 12:34:01;;;;;;;;;;;;;;;36.66;34.03;98865.06;5080509;27;19915;-90
2022/08/23 12:36:26;;;;;;;;;;;;;;;36.00;34.95;98853.00;5083533;27;19922;-89
2022/08/23 12:38:52;;;;;;;;;;;;;;;37.25;33.19;98865.47;5093854;28;19912;-90
2022/08/23 12:41:19;;;;;;;;;;;;;;;37.14;33.11;98880.47;5095878;27;19955;-90
2022/08/23 12:44:02;;;;;;;;;;;;;;;38.16;32.21;98879.75;5087442;27;19923;-90
2022/08/23 12:46:47;;;;;;;;;;;;;;;38.41;31.00;98876.00;5113416;27;19916;-88
2022/08/23 12:49:30;;;;;;;;;;;;;;;38.60;32.62;98885.66;5090043;27;19912;-90
2022/08/23 12:51:56;;;;;;;;;;;;;;;39.17;31.23;98879.63;5096582;27;20744;-89
2022/08/23 12:54:23;;;;;;;;;;;;;;;38.53;31.27;98876.06;5093967;27;20431;-88
2022/08/23 12:56:52;;;;;;;;;;;;;;;39.73;29.92;98880.72;5078705;27;19974;-89
2022/08/23 12:59:36;;;;;;;;;;;;;;;40.45;29.04;98873.84;5103124;27;19920;-89
2022/08/23 13:02:04;;;;;;;;;;;;;;;40.68;29.39;98880.94;5092636;27;19919;-89